Solsberry, Indiana
Current Conditions -  °F | °C
As of 11:53 PM on Tuesday 25 Nov 2014 (Local Time) from KBMG Reporting Station
Overcast Overcast  
Wind Chill: 22°   Ceiling: 1400
Heat Index: 28°   Visibility: 10mi
Dew Point: 23°   Wind: 6mph
Humidity: 81%   Direction: 360°N
Pressure: 30.18"   Gusts: NA
Location:  39.08°N, 86.76°W
Report Text: KBMG 260453Z 36005KT 10SM OVC014 M02/M05 A3018 RMK AO2 SLP227 T10221050 400221022
Loading
Personal Weather Stations






























Interactive Weather Map New forecast layout! Learn more

10-Day Weather Forecast

Advertisements
Track Severe Weather on mobile